sensor_id;sensor_type;location;lat;lon;timestamp;P1;durP1;ratioP1;P2;durP2;ratioP2
39400;SDS011;54391;50.000;7.360;2023-11-18T00:00:18;12.57;;;6.95;;
39400;SDS011;54391;50.000;7.360;2023-11-18T00:02:46;12.13;;;6.07;;
39400;SDS011;54391;50.000;7.360;2023-11-18T00:05:14;15.00;;;7.20;;
39400;SDS011;54391;50.000;7.360;2023-11-18T00:07:41;22.27;;;8.77;;
39400;SDS011;54391;50.000;7.360;2023-11-18T00:10:09;13.27;;;7.82;;
39400;SDS011;54391;50.000;7.360;2023-11-18T00:12:38;11.60;;;7.18;;
39400;SDS011;54391;50.000;7.360;2023-11-18T00:15:06;15.30;;;7.53;;
39400;SDS011;54391;50.000;7.360;2023-11-18T00:17:36;13.15;;;7.20;;
39400;SDS011;54391;50.000;7.360;2023-11-18T00:20:04;12.57;;;7.47;;
39400;SDS011;54391;50.000;7.360;2023-11-18T00:22:35;19.83;;;7.78;;
39400;SDS011;54391;50.000;7.360;2023-11-18T00:25:03;17.02;;;7.97;;
39400;SDS011;54391;50.000;7.360;2023-11-18T00:27:32;15.20;;;8.18;;
39400;SDS011;54391;50.000;7.360;2023-11-18T00:30:03;14.38;;;7.30;;
39400;SDS011;54391;50.000;7.360;2023-11-18T00:32:33;14.65;;;7.70;;
39400;SDS011;54391;50.000;7.360;2023-11-18T00:38:33;11.10;;;6.90;;
39400;SDS011;54391;50.000;7.360;2023-11-18T00:41:02;11.73;;;6.80;;
39400;SDS011;54391;50.000;7.360;2023-11-18T00:43:30;12.50;;;7.28;;
39400;SDS011;54391;50.000;7.360;2023-11-18T00:46:03;10.75;;;6.90;;
39400;SDS011;54391;50.000;7.360;2023-11-18T00:48:30;11.32;;;6.80;;
39400;SDS011;54391;50.000;7.360;2023-11-18T00:50:59;10.73;;;5.65;;
39400;SDS011;54391;50.000;7.360;2023-11-18T00:53:29;9.40;;;5.30;;
39400;SDS011;54391;50.000;7.360;2023-11-18T00:55:59;12.25;;;6.65;;
39400;SDS011;54391;50.000;7.360;2023-11-18T00:58:33;10.30;;;6.13;;
39400;SDS011;54391;50.000;7.360;2023-11-18T01:01:45;11.63;;;6.43;;
39400;SDS011;54391;50.000;7.360;2023-11-18T01:04:14;12.05;;;6.30;;
39400;SDS011;54391;50.000;7.360;2023-11-18T01:06:42;10.60;;;6.40;;
39400;SDS011;54391;50.000;7.360;2023-11-18T01:09:09;11.90;;;6.28;;
39400;SDS011;54391;50.000;7.360;2023-11-18T01:11:37;13.18;;;6.00;;
39400;SDS011;54391;50.000;7.360;2023-11-18T01:14:04;11.15;;;6.28;;
39400;SDS011;54391;50.000;7.360;2023-11-18T01:16:33;10.98;;;6.38;;
39400;SDS011;54391;50.000;7.360;2023-11-18T01:19:02;10.45;;;6.30;;
39400;SDS011;54391;50.000;7.360;2023-11-18T01:21:34;9.57;;;5.93;;
39400;SDS011;54391;50.000;7.360;2023-11-18T01:24:04;10.02;;;4.75;;
39400;SDS011;54391;50.000;7.360;2023-11-18T01:26:33;9.32;;;5.38;;
39400;SDS011;54391;50.000;7.360;2023-11-18T01:29:02;11.80;;;6.40;;
39400;SDS011;54391;50.000;7.360;2023-11-18T01:31:31;9.80;;;5.75;;
39400;SDS011;54391;50.000;7.360;2023-11-18T01:33:59;8.50;;;5.40;;
39400;SDS011;54391;50.000;7.360;2023-11-18T01:36:29;8.20;;;5.10;;
39400;SDS011;54391;50.000;7.360;2023-11-18T01:38:57;9.88;;;5.85;;
39400;SDS011;54391;50.000;7.360;2023-11-18T01:41:26;10.95;;;6.40;;
39400;SDS011;54391;50.000;7.360;2023-11-18T01:43:54;10.45;;;5.47;;
39400;SDS011;54391;50.000;7.360;2023-11-18T01:46:22;8.20;;;4.97;;
39400;SDS011;54391;50.000;7.360;2023-11-18T01:48:50;9.20;;;5.30;;
39400;SDS011;54391;50.000;7.360;2023-11-18T01:51:19;11.25;;;5.78;;
39400;SDS011;54391;50.000;7.360;2023-11-18T01:53:50;9.10;;;5.65;;
39400;SDS011;54391;50.000;7.360;2023-11-18T01:56:18;10.60;;;5.80;;
39400;SDS011;54391;50.000;7.360;2023-11-18T01:58:50;10.43;;;6.10;;
39400;SDS011;54391;50.000;7.360;2023-11-18T02:01:18;12.38;;;6.13;;
39400;SDS011;54391;50.000;7.360;2023-11-18T02:03:47;9.45;;;5.57;;
39400;SDS011;54391;50.000;7.360;2023-11-18T02:06:16;10.98;;;5.85;;
39400;SDS011;54391;50.000;7.360;2023-11-18T02:08:44;13.00;;;5.90;;
39400;SDS011;54391;50.000;7.360;2023-11-18T02:11:17;10.90;;;5.65;;
39400;SDS011;54391;50.000;7.360;2023-11-18T02:13:50;9.38;;;5.22;;
39400;SDS011;54391;50.000;7.360;2023-11-18T02:16:19;8.65;;;5.50;;
39400;SDS011;54391;50.000;7.360;2023-11-18T02:18:48;10.52;;;5.53;;
39400;SDS011;54391;50.000;7.360;2023-11-18T02:21:17;9.23;;;5.25;;
39400;SDS011;54391;50.000;7.360;2023-11-18T02:23:44;9.80;;;5.68;;
39400;SDS011;54391;50.000;7.360;2023-11-18T02:26:21;9.38;;;5.72;;
39400;SDS011;54391;50.000;7.360;2023-11-18T02:28:50;9.63;;;6.65;;
39400;SDS011;54391;50.000;7.360;2023-11-18T02:31:20;13.18;;;6.38;;
39400;SDS011;54391;50.000;7.360;2023-11-18T02:33:51;28.88;;;7.95;;
39400;SDS011;54391;50.000;7.360;2023-11-18T02:36:24;35.15;;;9.40;;
39400;SDS011;54391;50.000;7.360;2023-11-18T02:39:01;10.73;;;5.93;;
39400;SDS011;54391;50.000;7.360;2023-11-18T02:41:35;11.13;;;5.85;;
39400;SDS011;54391;50.000;7.360;2023-11-18T02:44:06;9.65;;;5.53;;
39400;SDS011;54391;50.000;7.360;2023-11-18T02:47:17;10.43;;;6.55;;
39400;SDS011;54391;50.000;7.360;2023-11-18T02:49:45;10.68;;;6.22;;
39400;SDS011;54391;50.000;7.360;2023-11-18T02:52:19;10.25;;;6.00;;
39400;SDS011;54391;50.000;7.360;2023-11-18T02:54:48;11.18;;;6.60;;
39400;SDS011;54391;50.000;7.360;2023-11-18T02:57:16;9.73;;;6.13;;
39400;SDS011;54391;50.000;7.360;2023-11-18T02:59:44;9.43;;;5.80;;
39400;SDS011;54391;50.000;7.360;2023-11-18T03:02:12;8.93;;;5.30;;
39400;SDS011;54391;50.000;7.360;2023-11-18T03:04:41;11.45;;;5.38;;
39400;SDS011;54391;50.000;7.360;2023-11-18T03:07:10;21.50;;;7.18;;
39400;SDS011;54391;50.000;7.360;2023-11-18T03:09:37;134.75;;;19.23;;
39400;SDS011;54391;50.000;7.360;2023-11-18T03:12:06;183.75;;;24.88;;
39400;SDS011;54391;50.000;7.360;2023-11-18T03:14:36;113.15;;;17.17;;
39400;SDS011;54391;50.000;7.360;2023-11-18T03:17:04;183.98;;;26.38;;
39400;SDS011;54391;50.000;7.360;2023-11-18T03:19:35;128.80;;;19.73;;
39400;SDS011;54391;50.000;7.360;2023-11-18T03:22:02;194.88;;;24.00;;
39400;SDS011;54391;50.000;7.360;2023-11-18T03:24:30;85.40;;;12.15;;
39400;SDS011;54391;50.000;7.360;2023-11-18T03:26:59;138.50;;;17.98;;
39400;SDS011;54391;50.000;7.360;2023-11-18T03:29:26;88.78;;;13.00;;
39400;SDS011;54391;50.000;7.360;2023-11-18T03:31:56;86.25;;;12.23;;
39400;SDS011;54391;50.000;7.360;2023-11-18T03:34:23;121.35;;;15.30;;
39400;SDS011;54391;50.000;7.360;2023-11-18T03:36:50;82.65;;;11.80;;
39400;SDS011;54391;50.000;7.360;2023-11-18T03:39:17;91.95;;;14.32;;
39400;SDS011;54391;50.000;7.360;2023-11-18T03:41:44;94.03;;;13.07;;
39400;SDS011;54391;50.000;7.360;2023-11-18T03:44:12;87.35;;;11.77;;
39400;SDS011;54391;50.000;7.360;2023-11-18T03:46:39;133.70;;;17.08;;
39400;SDS011;54391;50.000;7.360;2023-11-18T03:49:27;72.28;;;11.07;;
39400;SDS011;54391;50.000;7.360;2023-11-18T03:58:48;88.95;;;12.27;;
39400;SDS011;54391;50.000;7.360;2023-11-18T04:01:19;93.53;;;14.18;;
39400;SDS011;54391;50.000;7.360;2023-11-18T04:06:52;83.38;;;11.60;;
39400;SDS011;54391;50.000;7.360;2023-11-18T04:12:26;142.35;;;17.95;;
39400;SDS011;54391;50.000;7.360;2023-11-18T04:14:55;102.85;;;14.35;;
39400;SDS011;54391;50.000;7.360;2023-11-18T04:17:24;72.18;;;12.40;;
39400;SDS011;54391;50.000;7.360;2023-11-18T04:19:53;99.70;;;14.30;;
39400;SDS011;54391;50.000;7.360;2023-11-18T04:22:22;68.88;;;11.05;;
39400;SDS011;54391;50.000;7.360;2023-11-18T04:24:50;106.15;;;16.70;;
39400;SDS011;54391;50.000;7.360;2023-11-18T04:27:17;120.30;;;20.05;;
39400;SDS011;54391;50.000;7.360;2023-11-18T04:29:51;168.90;;;26.58;;
39400;SDS011;54391;50.000;7.360;2023-11-18T04:32:23;127.90;;;20.73;;
39400;SDS011;54391;50.000;7.360;2023-11-18T04:38:40;159.73;;;27.17;;
39400;SDS011;54391;50.000;7.360;2023-11-18T04:44:38;81.32;;;16.10;;
39400;SDS011;54391;50.000;7.360;2023-11-18T04:47:07;86.28;;;17.67;;
39400;SDS011;54391;50.000;7.360;2023-11-18T04:49:36;105.57;;;18.75;;
39400;SDS011;54391;50.000;7.360;2023-11-18T04:52:03;143.38;;;25.70;;
39400;SDS011;54391;50.000;7.360;2023-11-18T04:54:34;21.88;;;7.43;;
39400;SDS011;54391;50.000;7.360;2023-11-18T04:57:03;32.17;;;9.68;;
39400;SDS011;54391;50.000;7.360;2023-11-18T04:59:34;95.22;;;17.70;;
39400;SDS011;54391;50.000;7.360;2023-11-18T05:02:02;30.30;;;9.90;;
39400;SDS011;54391;50.000;7.360;2023-11-18T05:04:30;130.65;;;26.20;;
39400;SDS011;54391;50.000;7.360;2023-11-18T05:06:57;102.13;;;21.80;;
39400;SDS011;54391;50.000;7.360;2023-11-18T05:09:24;43.47;;;14.30;;
39400;SDS011;54391;50.000;7.360;2023-11-18T05:11:55;14.38;;;6.38;;
39400;SDS011;54391;50.000;7.360;2023-11-18T05:19:06;38.33;;;11.32;;
39400;SDS011;54391;50.000;7.360;2023-11-18T05:21:33;15.02;;;6.63;;
39400;SDS011;54391;50.000;7.360;2023-11-18T05:27:49;30.77;;;8.90;;
39400;SDS011;54391;50.000;7.360;2023-11-18T05:30:17;16.60;;;6.28;;
39400;SDS011;54391;50.000;7.360;2023-11-18T05:36:15;17.27;;;7.05;;
39400;SDS011;54391;50.000;7.360;2023-11-18T05:42:08;45.30;;;11.05;;
39400;SDS011;54391;50.000;7.360;2023-11-18T05:44:37;52.78;;;14.40;;
39400;SDS011;54391;50.000;7.360;2023-11-18T05:47:07;44.08;;;12.05;;
39400;SDS011;54391;50.000;7.360;2023-11-18T05:49:37;90.57;;;19.05;;
39400;SDS011;54391;50.000;7.360;2023-11-18T05:52:05;59.08;;;12.95;;
39400;SDS011;54391;50.000;7.360;2023-11-18T05:54:33;8.25;;;3.63;;
39400;SDS011;54391;50.000;7.360;2023-11-18T05:57:00;50.47;;;9.88;;
39400;SDS011;54391;50.000;7.360;2023-11-18T05:59:28;12.38;;;6.05;;
39400;SDS011;54391;50.000;7.360;2023-11-18T06:01:57;70.28;;;15.15;;
39400;SDS011;54391;50.000;7.360;2023-11-18T06:07:29;57.83;;;12.45;;
39400;SDS011;54391;50.000;7.360;2023-11-18T06:13:28;4.55;;;2.75;;
39400;SDS011;54391;50.000;7.360;2023-11-18T06:19:29;4.38;;;2.47;;
39400;SDS011;54391;50.000;7.360;2023-11-18T06:21:57;4.20;;;2.40;;
39400;SDS011;54391;50.000;7.360;2023-11-18T06:24:25;5.13;;;2.75;;
39400;SDS011;54391;50.000;7.360;2023-11-18T06:26:53;5.47;;;2.70;;
39400;SDS011;54391;50.000;7.360;2023-11-18T06:29:21;8.93;;;3.70;;
39400;SDS011;54391;50.000;7.360;2023-11-18T06:31:48;19.02;;;5.50;;
39400;SDS011;54391;50.000;7.360;2023-11-18T06:34:16;16.10;;;5.57;;
39400;SDS011;54391;50.000;7.360;2023-11-18T06:36:47;88.82;;;20.92;;
39400;SDS011;54391;50.000;7.360;2023-11-18T06:42:53;69.32;;;16.83;;
39400;SDS011;54391;50.000;7.360;2023-11-18T06:45:27;76.38;;;19.33;;
39400;SDS011;54391;50.000;7.360;2023-11-18T06:47:57;94.55;;;19.90;;
39400;SDS011;54391;50.000;7.360;2023-11-18T06:50:25;109.03;;;21.27;;
39400;SDS011;54391;50.000;7.360;2023-11-18T06:59:57;163.23;;;35.95;;
39400;SDS011;54391;50.000;7.360;2023-11-18T07:02:25;110.95;;;25.05;;
39400;SDS011;54391;50.000;7.360;2023-11-18T07:04:53;104.15;;;22.98;;
39400;SDS011;54391;50.000;7.360;2023-11-18T07:07:22;84.40;;;18.92;;
39400;SDS011;54391;50.000;7.360;2023-11-18T07:09:56;46.75;;;10.98;;
39400;SDS011;54391;50.000;7.360;2023-11-18T07:13:20;80.90;;;18.63;;
39400;SDS011;54391;50.000;7.360;2023-11-18T07:15:49;177.27;;;37.13;;
39400;SDS011;54391;50.000;7.360;2023-11-18T07:18:19;162.98;;;33.75;;
39400;SDS011;54391;50.000;7.360;2023-11-18T07:20:48;166.02;;;35.25;;
39400;SDS011;54391;50.000;7.360;2023-11-18T07:23:17;154.02;;;30.85;;
39400;SDS011;54391;50.000;7.360;2023-11-18T07:25:48;145.80;;;33.03;;
39400;SDS011;54391;50.000;7.360;2023-11-18T07:28:18;119.03;;;29.85;;
39400;SDS011;54391;50.000;7.360;2023-11-18T07:30:49;72.55;;;19.83;;
39400;SDS011;54391;50.000;7.360;2023-11-18T07:33:19;110.55;;;25.88;;
39400;SDS011;54391;50.000;7.360;2023-11-18T07:35:48;109.88;;;26.52;;
39400;SDS011;54391;50.000;7.360;2023-11-18T07:38:18;136.18;;;27.65;;
39400;SDS011;54391;50.000;7.360;2023-11-18T07:40:45;175.30;;;39.58;;
39400;SDS011;54391;50.000;7.360;2023-11-18T07:46:33;102.93;;;26.10;;
39400;SDS011;54391;50.000;7.360;2023-11-18T07:49:03;128.95;;;28.10;;
39400;SDS011;54391;50.000;7.360;2023-11-18T07:51:31;144.57;;;33.05;;
39400;SDS011;54391;50.000;7.360;2023-11-18T07:53:59;237.90;;;53.65;;
39400;SDS011;54391;50.000;7.360;2023-11-18T07:56:27;144.77;;;30.65;;
39400;SDS011;54391;50.000;7.360;2023-11-18T07:58:57;146.48;;;33.58;;
39400;SDS011;54391;50.000;7.360;2023-11-18T08:01:27;152.00;;;31.67;;
39400;SDS011;54391;50.000;7.360;2023-11-18T08:12:54;156.98;;;33.83;;
39400;SDS011;54391;50.000;7.360;2023-11-18T08:15:24;216.27;;;47.05;;
39400;SDS011;54391;50.000;7.360;2023-11-18T08:17:54;199.70;;;46.20;;
39400;SDS011;54391;50.000;7.360;2023-11-18T08:20:24;96.32;;;21.08;;
39400;SDS011;54391;50.000;7.360;2023-11-18T08:22:53;189.02;;;38.47;;
39400;SDS011;54391;50.000;7.360;2023-11-18T08:25:22;167.82;;;37.88;;
39400;SDS011;54391;50.000;7.360;2023-11-18T08:27:51;185.95;;;39.85;;
39400;SDS011;54391;50.000;7.360;2023-11-18T08:30:20;143.50;;;33.00;;
39400;SDS011;54391;50.000;7.360;2023-11-18T08:36:18;167.02;;;33.47;;
39400;SDS011;54391;50.000;7.360;2023-11-18T08:38:47;202.52;;;42.08;;
39400;SDS011;54391;50.000;7.360;2023-11-18T08:41:18;171.18;;;35.70;;
39400;SDS011;54391;50.000;7.360;2023-11-18T08:43:47;113.63;;;26.08;;
39400;SDS011;54391;50.000;7.360;2023-11-18T08:46:17;119.95;;;28.77;;
39400;SDS011;54391;50.000;7.360;2023-11-18T08:48:46;184.75;;;39.45;;
39400;SDS011;54391;50.000;7.360;2023-11-18T08:54:47;155.30;;;35.03;;
39400;SDS011;54391;50.000;7.360;2023-11-18T08:57:47;68.22;;;15.57;;
39400;SDS011;54391;50.000;7.360;2023-11-18T09:00:26;183.52;;;37.63;;
39400;SDS011;54391;50.000;7.360;2023-11-18T09:03:16;128.13;;;34.17;;
39400;SDS011;54391;50.000;7.360;2023-11-18T09:05:51;105.85;;;24.10;;
39400;SDS011;54391;50.000;7.360;2023-11-18T09:08:24;205.05;;;44.83;;
39400;SDS011;54391;50.000;7.360;2023-11-18T09:10:55;137.13;;;28.27;;
39400;SDS011;54391;50.000;7.360;2023-11-18T09:13:25;211.05;;;42.90;;
39400;SDS011;54391;50.000;7.360;2023-11-18T09:15:54;202.07;;;42.50;;
39400;SDS011;54391;50.000;7.360;2023-11-18T09:18:22;219.85;;;51.80;;
39400;SDS011;54391;50.000;7.360;2023-11-18T09:20:51;187.32;;;39.22;;
39400;SDS011;54391;50.000;7.360;2023-11-18T09:23:20;148.00;;;35.83;;
39400;SDS011;54391;50.000;7.360;2023-11-18T09:25:48;113.95;;;28.38;;
39400;SDS011;54391;50.000;7.360;2023-11-18T09:28:18;120.68;;;33.13;;
39400;SDS011;54391;50.000;7.360;2023-11-18T09:30:47;187.13;;;44.67;;
39400;SDS011;54391;50.000;7.360;2023-11-18T09:35:57;150.30;;;34.10;;
39400;SDS011;54391;50.000;7.360;2023-11-18T09:38:27;94.00;;;19.58;;
39400;SDS011;54391;50.000;7.360;2023-11-18T09:40:55;125.85;;;29.90;;
39400;SDS011;54391;50.000;7.360;2023-11-18T09:43:26;82.78;;;22.90;;
39400;SDS011;54391;50.000;7.360;2023-11-18T09:46:00;78.07;;;21.05;;
39400;SDS011;54391;50.000;7.360;2023-11-18T09:51:06;59.72;;;15.45;;
39400;SDS011;54391;50.000;7.360;2023-11-18T09:57:36;4.63;;;2.78;;
39400;SDS011;54391;50.000;7.360;2023-11-18T10:00:06;5.28;;;3.00;;
39400;SDS011;54391;50.000;7.360;2023-11-18T10:02:47;7.13;;;3.50;;
39400;SDS011;54391;50.000;7.360;2023-11-18T10:08:51;4.22;;;3.00;;
39400;SDS011;54391;50.000;7.360;2023-11-18T10:11:20;5.43;;;2.92;;
39400;SDS011;54391;50.000;7.360;2023-11-18T10:16:42;4.78;;;2.70;;
39400;SDS011;54391;50.000;7.360;2023-11-18T10:19:13;4.90;;;2.60;;
39400;SDS011;54391;50.000;7.360;2023-11-18T10:21:42;3.28;;;2.30;;
39400;SDS011;54391;50.000;7.360;2023-11-18T10:24:14;4.60;;;2.35;;
39400;SDS011;54391;50.000;7.360;2023-11-18T10:26:44;3.53;;;2.33;;
39400;SDS011;54391;50.000;7.360;2023-11-18T10:29:13;5.18;;;2.45;;
39400;SDS011;54391;50.000;7.360;2023-11-18T10:31:43;3.42;;;2.10;;
39400;SDS011;54391;50.000;7.360;2023-11-18T10:34:12;4.18;;;2.17;;
39400;SDS011;54391;50.000;7.360;2023-11-18T10:40:12;4.45;;;2.58;;
39400;SDS011;54391;50.000;7.360;2023-11-18T10:46:08;4.47;;;3.05;;
39400;SDS011;54391;50.000;7.360;2023-11-18T10:52:47;4.78;;;2.92;;
39400;SDS011;54391;50.000;7.360;2023-11-18T10:55:16;3.45;;;2.15;;
39400;SDS011;54391;50.000;7.360;2023-11-18T10:57:44;3.95;;;2.58;;
39400;SDS011;54391;50.000;7.360;2023-11-18T11:00:13;4.50;;;2.45;;
39400;SDS011;54391;50.000;7.360;2023-11-18T11:02:44;4.60;;;2.05;;
39400;SDS011;54391;50.000;7.360;2023-11-18T11:05:27;4.43;;;3.00;;
39400;SDS011;54391;50.000;7.360;2023-11-18T11:07:57;5.60;;;3.05;;
39400;SDS011;54391;50.000;7.360;2023-11-18T11:10:27;6.22;;;3.55;;
39400;SDS011;54391;50.000;7.360;2023-11-18T11:12:55;4.40;;;2.92;;
39400;SDS011;54391;50.000;7.360;2023-11-18T11:15:23;4.70;;;2.80;;
39400;SDS011;54391;50.000;7.360;2023-11-18T11:17:54;4.53;;;2.65;;
39400;SDS011;54391;50.000;7.360;2023-11-18T11:20:21;4.03;;;2.50;;
39400;SDS011;54391;50.000;7.360;2023-11-18T11:23:01;4.88;;;2.88;;
39400;SDS011;54391;50.000;7.360;2023-11-18T11:25:37;5.30;;;3.05;;
39400;SDS011;54391;50.000;7.360;2023-11-18T11:28:11;5.78;;;3.20;;
39400;SDS011;54391;50.000;7.360;2023-11-18T11:30:43;4.38;;;2.83;;
39400;SDS011;54391;50.000;7.360;2023-11-18T11:33:17;4.43;;;2.78;;
39400;SDS011;54391;50.000;7.360;2023-11-18T11:35:53;5.03;;;3.10;;
39400;SDS011;54391;50.000;7.360;2023-11-18T11:38:23;4.43;;;2.50;;
39400;SDS011;54391;50.000;7.360;2023-11-18T11:40:55;5.28;;;3.22;;
39400;SDS011;54391;50.000;7.360;2023-11-18T11:43:27;5.68;;;3.35;;
39400;SDS011;54391;50.000;7.360;2023-11-18T11:49:27;5.47;;;3.20;;
39400;SDS011;54391;50.000;7.360;2023-11-18T11:51:57;5.75;;;3.45;;
39400;SDS011;54391;50.000;7.360;2023-11-18T11:54:31;6.32;;;3.65;;
39400;SDS011;54391;50.000;7.360;2023-11-18T12:03:31;6.05;;;3.50;;
39400;SDS011;54391;50.000;7.360;2023-11-18T12:06:01;6.00;;;3.50;;
39400;SDS011;54391;50.000;7.360;2023-11-18T12:08:35;6.00;;;3.67;;
39400;SDS011;54391;50.000;7.360;2023-11-18T12:11:05;5.57;;;3.47;;
39400;SDS011;54391;50.000;7.360;2023-11-18T12:13:35;4.78;;;3.20;;
39400;SDS011;54391;50.000;7.360;2023-11-18T12:19:31;4.28;;;2.53;;
39400;SDS011;54391;50.000;7.360;2023-11-18T12:22:10;3.85;;;2.30;;
39400;SDS011;54391;50.000;7.360;2023-11-18T12:27:41;4.07;;;2.70;;
39400;SDS011;54391;50.000;7.360;2023-11-18T12:33:06;4.03;;;3.15;;
39400;SDS011;54391;50.000;7.360;2023-11-18T12:42:01;4.13;;;2.80;;
39400;SDS011;54391;50.000;7.360;2023-11-18T12:44:36;4.90;;;2.80;;
39400;SDS011;54391;50.000;7.360;2023-11-18T12:47:06;4.80;;;2.50;;
39400;SDS011;54391;50.000;7.360;2023-11-18T12:49:43;4.35;;;2.83;;
39400;SDS011;54391;50.000;7.360;2023-11-18T12:52:15;4.40;;;2.40;;
39400;SDS011;54391;50.000;7.360;2023-11-18T12:54:45;6.10;;;3.10;;
39400;SDS011;54391;50.000;7.360;2023-11-18T12:57:16;5.05;;;2.80;;
39400;SDS011;54391;50.000;7.360;2023-11-18T12:59:43;4.63;;;2.85;;
39400;SDS011;54391;50.000;7.360;2023-11-18T13:02:11;4.05;;;2.22;;
39400;SDS011;54391;50.000;7.360;2023-11-18T13:04:44;6.50;;;2.92;;
39400;SDS011;54391;50.000;7.360;2023-11-18T13:07:13;2.88;;;2.20;;
39400;SDS011;54391;50.000;7.360;2023-11-18T13:09:42;3.58;;;2.70;;
39400;SDS011;54391;50.000;7.360;2023-11-18T13:12:12;4.50;;;2.83;;
39400;SDS011;54391;50.000;7.360;2023-11-18T13:14:42;3.15;;;1.77;;
39400;SDS011;54391;50.000;7.360;2023-11-18T13:17:11;3.58;;;2.28;;
39400;SDS011;54391;50.000;7.360;2023-11-18T13:19:41;3.80;;;2.28;;
39400;SDS011;54391;50.000;7.360;2023-11-18T13:22:09;4.25;;;2.28;;
39400;SDS011;54391;50.000;7.360;2023-11-18T13:24:38;2.72;;;1.90;;
39400;SDS011;54391;50.000;7.360;2023-11-18T13:27:09;4.30;;;2.20;;
39400;SDS011;54391;50.000;7.360;2023-11-18T13:29:39;3.38;;;2.35;;
39400;SDS011;54391;50.000;7.360;2023-11-18T13:32:10;4.82;;;2.00;;
39400;SDS011;54391;50.000;7.360;2023-11-18T13:34:38;2.72;;;1.90;;
39400;SDS011;54391;50.000;7.360;2023-11-18T13:37:07;2.70;;;1.98;;
39400;SDS011;54391;50.000;7.360;2023-11-18T13:39:38;3.72;;;2.20;;
39400;SDS011;54391;50.000;7.360;2023-11-18T13:42:19;3.35;;;2.22;;
39400;SDS011;54391;50.000;7.360;2023-11-18T13:44:49;2.85;;;2.20;;
39400;SDS011;54391;50.000;7.360;2023-11-18T13:47:18;4.65;;;2.28;;
39400;SDS011;54391;50.000;7.360;2023-11-18T13:49:48;4.07;;;2.28;;
39400;SDS011;54391;50.000;7.360;2023-11-18T13:52:17;4.10;;;2.10;;
39400;SDS011;54391;50.000;7.360;2023-11-18T13:54:46;2.70;;;2.00;;
39400;SDS011;54391;50.000;7.360;2023-11-18T13:57:17;4.50;;;1.98;;
39400;SDS011;54391;50.000;7.360;2023-11-18T13:59:49;3.38;;;1.90;;
39400;SDS011;54391;50.000;7.360;2023-11-18T14:02:18;1.92;;;1.42;;
39400;SDS011;54391;50.000;7.360;2023-11-18T14:04:46;3.03;;;1.95;;
39400;SDS011;54391;50.000;7.360;2023-11-18T14:07:14;3.22;;;1.70;;
39400;SDS011;54391;50.000;7.360;2023-11-18T14:09:43;3.60;;;1.58;;
39400;SDS011;54391;50.000;7.360;2023-11-18T14:12:12;2.88;;;1.40;;
39400;SDS011;54391;50.000;7.360;2023-11-18T14:14:41;2.45;;;1.40;;
39400;SDS011;54391;50.000;7.360;2023-11-18T14:17:11;2.88;;;1.92;;
39400;SDS011;54391;50.000;7.360;2023-11-18T14:19:42;2.50;;;1.50;;
39400;SDS011;54391;50.000;7.360;2023-11-18T14:22:11;2.83;;;1.40;;
39400;SDS011;54391;50.000;7.360;2023-11-18T14:24:40;2.20;;;1.27;;
39400;SDS011;54391;50.000;7.360;2023-11-18T14:27:08;1.60;;;1.17;;
39400;SDS011;54391;50.000;7.360;2023-11-18T14:29:38;2.55;;;1.20;;
39400;SDS011;54391;50.000;7.360;2023-11-18T14:32:05;2.58;;;1.27;;
39400;SDS011;54391;50.000;7.360;2023-11-18T14:34:34;2.40;;;0.90;;
39400;SDS011;54391;50.000;7.360;2023-11-18T14:37:02;2.60;;;1.30;;
39400;SDS011;54391;50.000;7.360;2023-11-18T14:39:31;1.65;;;0.90;;
39400;SDS011;54391;50.000;7.360;2023-11-18T14:42:02;2.80;;;1.25;;
39400;SDS011;54391;50.000;7.360;2023-11-18T14:44:30;1.52;;;1.23;;
39400;SDS011;54391;50.000;7.360;2023-11-18T14:46:59;3.90;;;1.33;;
39400;SDS011;54391;50.000;7.360;2023-11-18T14:49:27;2.25;;;1.30;;
39400;SDS011;54391;50.000;7.360;2023-11-18T14:51:57;2.80;;;1.65;;
39400;SDS011;54391;50.000;7.360;2023-11-18T14:54:25;2.58;;;1.35;;
39400;SDS011;54391;50.000;7.360;2023-11-18T14:56:55;1.67;;;1.20;;
39400;SDS011;54391;50.000;7.360;2023-11-18T14:59:24;2.10;;;1.42;;
39400;SDS011;54391;50.000;7.360;2023-11-18T15:01:52;2.63;;;1.15;;
39400;SDS011;54391;50.000;7.360;2023-11-18T15:04:23;2.22;;;1.58;;
39400;SDS011;54391;50.000;7.360;2023-11-18T15:06:52;2.50;;;1.20;;
39400;SDS011;54391;50.000;7.360;2023-11-18T15:09:22;3.30;;;1.13;;
39400;SDS011;54391;50.000;7.360;2023-11-18T15:11:50;2.10;;;1.65;;
39400;SDS011;54391;50.000;7.360;2023-11-18T15:14:19;2.20;;;1.33;;
39400;SDS011;54391;50.000;7.360;2023-11-18T15:16:47;1.90;;;1.30;;
39400;SDS011;54391;50.000;7.360;2023-11-18T15:19:16;1.90;;;1.30;;
39400;SDS011;54391;50.000;7.360;2023-11-18T15:21:45;2.00;;;1.35;;
39400;SDS011;54391;50.000;7.360;2023-11-18T15:24:14;2.90;;;1.50;;
39400;SDS011;54391;50.000;7.360;2023-11-18T15:26:44;3.42;;;1.65;;
39400;SDS011;54391;50.000;7.360;2023-11-18T15:29:12;3.08;;;1.30;;
39400;SDS011;54391;50.000;7.360;2023-11-18T15:31:40;1.88;;;1.30;;
39400;SDS011;54391;50.000;7.360;2023-11-18T15:34:07;1.73;;;1.30;;
39400;SDS011;54391;50.000;7.360;2023-11-18T15:36:39;3.00;;;1.25;;
39400;SDS011;54391;50.000;7.360;2023-11-18T15:39:08;2.03;;;1.20;;
39400;SDS011;54391;50.000;7.360;2023-11-18T15:41:35;2.25;;;1.38;;
39400;SDS011;54391;50.000;7.360;2023-11-18T15:44:04;2.55;;;1.17;;
39400;SDS011;54391;50.000;7.360;2023-11-18T15:46:32;2.63;;;1.30;;
39400;SDS011;54391;50.000;7.360;2023-11-18T15:49:00;1.52;;;1.23;;
39400;SDS011;54391;50.000;7.360;2023-11-18T15:51:27;1.50;;;1.08;;
39400;SDS011;54391;50.000;7.360;2023-11-18T15:53:55;2.95;;;1.20;;
39400;SDS011;54391;50.000;7.360;2023-11-18T15:56:23;2.40;;;1.30;;
39400;SDS011;54391;50.000;7.360;2023-11-18T15:58:52;2.15;;;1.20;;
39400;SDS011;54391;50.000;7.360;2023-11-18T16:01:21;2.47;;;0.98;;
39400;SDS011;54391;50.000;7.360;2023-11-18T16:03:49;1.20;;;0.93;;
39400;SDS011;54391;50.000;7.360;2023-11-18T16:06:16;1.35;;;0.82;;
39400;SDS011;54391;50.000;7.360;2023-11-18T16:08:44;0.95;;;0.75;;
39400;SDS011;54391;50.000;7.360;2023-11-18T16:11:14;1.50;;;0.80;;
39400;SDS011;54391;50.000;7.360;2023-11-18T16:13:42;1.60;;;0.55;;
39400;SDS011;54391;50.000;7.360;2023-11-18T16:16:09;1.70;;;0.73;;
39400;SDS011;54391;50.000;7.360;2023-11-18T16:18:39;1.45;;;0.70;;
39400;SDS011;54391;50.000;7.360;2023-11-18T16:21:08;0.68;;;0.50;;
39400;SDS011;54391;50.000;7.360;2023-11-18T16:23:36;1.45;;;0.47;;
39400;SDS011;54391;50.000;7.360;2023-11-18T16:26:04;1.05;;;0.60;;
39400;SDS011;54391;50.000;7.360;2023-11-18T16:28:33;1.23;;;0.70;;
39400;SDS011;54391;50.000;7.360;2023-11-18T16:31:01;0.75;;;0.35;;
39400;SDS011;54391;50.000;7.360;2023-11-18T16:33:30;1.02;;;0.40;;
39400;SDS011;54391;50.000;7.360;2023-11-18T16:36:00;1.90;;;0.60;;
39400;SDS011;54391;50.000;7.360;2023-11-18T16:38:29;1.23;;;0.50;;
39400;SDS011;54391;50.000;7.360;2023-11-18T16:40:58;0.50;;;0.40;;
39400;SDS011;54391;50.000;7.360;2023-11-18T16:43:26;0.95;;;0.35;;
39400;SDS011;54391;50.000;7.360;2023-11-18T16:45:55;0.77;;;0.32;;
39400;SDS011;54391;50.000;7.360;2023-11-18T16:48:23;1.05;;;0.35;;
39400;SDS011;54391;50.000;7.360;2023-11-18T16:50:51;1.05;;;0.40;;
39400;SDS011;54391;50.000;7.360;2023-11-18T16:53:21;0.30;;;0.22;;
39400;SDS011;54391;50.000;7.360;2023-11-18T16:55:51;0.50;;;0.30;;
39400;SDS011;54391;50.000;7.360;2023-11-18T16:58:20;0.70;;;0.30;;
39400;SDS011;54391;50.000;7.360;2023-11-18T17:00:50;0.52;;;0.28;;
39400;SDS011;54391;50.000;7.360;2023-11-18T17:03:20;0.60;;;0.22;;